Time;durP1;ratioP1;P1;durP2;ratioP2;P2;SDS_P1;SDS_P2;PMS_P1;PMS_P2;Temp;Humidity;BMP_temperature;BMP_pressure;BME280_temperature;BME280_humidity;BME280_pressure;Samples;Min_cycle;Max_cycle;Signal;HPM_P1;HPM_P2
2023/09/14 00:00:13;;;;;;;1999.90;999.90;;;10.40;99.90;;;;;;5057316;28;20037;-66
2023/09/14 00:02:39;;;;;;;1999.90;999.90;;;10.30;99.90;;;;;;5050546;28;20044;-66
2023/09/14 00:05:05;;;;;;;1999.90;999.90;;;10.40;99.90;;;;;;5040680;28;20481;-66
2023/09/14 00:07:32;;;;;;;1999.90;999.90;;;10.40;99.90;;;;;;5057914;28;20044;-66
2023/09/14 00:09:58;;;;;;;1999.90;999.90;;;10.40;99.90;;;;;;5047362;28;20045;-66
2023/09/14 00:12:24;;;;;;;1999.90;999.90;;;10.40;99.90;;;;;;5064648;28;20045;-66
2023/09/14 00:14:50;;;;;;;1999.90;999.90;;;10.40;99.90;;;;;;5067162;28;20044;-66
2023/09/14 00:17:15;;;;;;;1999.90;999.90;;;10.40;99.90;;;;;;5041690;28;20440;-66
2023/09/14 00:19:41;;;;;;;1999.90;999.90;;;10.40;99.90;;;;;;5055841;28;20170;-67
2023/09/14 00:22:06;;;;;;;1999.90;999.90;;;10.40;99.90;;;;;;5051313;28;20120;-67
2023/09/14 00:24:32;;;;;;;1999.90;999.90;;;10.50;99.90;;;;;;5048857;28;20049;-66
2023/09/14 00:26:57;;;;;;;1999.90;999.90;;;10.50;99.90;;;;;;5056207;28;20040;-66
2023/09/14 00:29:23;;;;;;;1999.90;999.90;;;10.50;99.90;;;;;;5052348;28;20048;-66
2023/09/14 00:31:49;;;;;;;1999.90;999.90;;;10.60;99.90;;;;;;5052258;28;20549;-66
2023/09/14 00:34:14;;;;;;;1999.90;999.90;;;10.60;99.90;;;;;;5045752;28;20059;-66
2023/09/14 00:36:40;;;;;;;1999.90;999.90;;;10.60;99.90;;;;;;5060661;28;20082;-66
2023/09/14 00:39:08;;;;;;;1999.90;999.90;;;10.60;99.90;;;;;;5036108;28;20052;-66
2023/09/14 00:41:34;;;;;;;1999.90;999.90;;;10.60;99.90;;;;;;5065108;28;20051;-66
2023/09/14 00:43:59;;;;;;;1999.90;999.90;;;10.60;99.90;;;;;;5050900;28;20048;-66
2023/09/14 00:46:25;;;;;;;1999.90;999.90;;;10.60;99.90;;;;;;5032622;28;20535;-66
2023/09/14 00:48:51;;;;;;;1999.90;999.90;;;10.60;99.90;;;;;;5048770;28;20093;-66
2023/09/14 00:51:17;;;;;;;1999.90;999.90;;;10.60;99.90;;;;;;5053820;28;20093;-67
2023/09/14 00:53:44;;;;;;;1999.90;999.90;;;10.70;99.90;;;;;;5041452;28;20052;-66
2023/09/14 00:56:11;;;;;;;1999.90;999.90;;;10.70;99.90;;;;;;5054274;28;20059;-66
2023/09/14 00:58:38;;;;;;;1999.90;999.90;;;10.80;99.90;;;;;;5051612;28;20051;-67
2023/09/14 01:01:04;;;;;;;1999.90;999.90;;;10.70;99.90;;;;;;5042931;28;20036;-67
2023/09/14 01:03:30;;;;;;;1999.90;999.90;;;10.80;99.90;;;;;;5057219;28;20055;-67
2023/09/14 01:05:58;;;;;;;1999.90;999.90;;;10.80;99.90;;;;;;5061493;28;20072;-67
2023/09/14 01:08:24;;;;;;;1999.90;999.90;;;10.80;99.90;;;;;;5046954;28;20617;-66
2023/09/14 01:10:49;;;;;;;1999.90;999.90;;;10.80;99.90;;;;;;5061575;28;20055;-66
2023/09/14 01:13:38;;;;;;;1999.90;999.90;;;10.80;99.90;;;;;;5050122;28;20046;-66
2023/09/14 01:16:16;;;;;;;1999.90;999.90;;;10.80;99.90;;;;;;5045887;28;20084;-66
2023/09/14 01:18:51;;;;;;;1999.90;999.90;;;10.80;99.90;;;;;;5055520;28;20088;-66
2023/09/14 01:21:33;;;;;;;1999.90;999.90;;;10.80;99.90;;;;;;5043555;28;20041;-67
2023/09/14 01:24:17;;;;;;;1999.90;999.90;;;10.80;99.90;;;;;;5048918;28;20055;-66
2023/09/14 01:26:44;;;;;;;1999.90;999.90;;;10.80;99.90;;;;;;5038745;28;20397;-67
2023/09/14 01:29:10;;;;;;;1999.90;999.90;;;10.80;99.90;;;;;;5051530;28;20041;-66
2023/09/14 01:31:35;;;;;;;1999.90;999.90;;;10.80;99.90;;;;;;5033946;28;20047;-67
2023/09/14 01:34:02;;;;;;;1999.90;999.90;;;10.70;99.90;;;;;;5056658;28;20056;-66
2023/09/14 01:36:27;;;;;;;1999.90;999.90;;;10.70;99.90;;;;;;5046265;28;20032;-66
2023/09/14 01:38:54;;;;;;;1999.90;999.90;;;10.60;99.90;;;;;;5050228;28;20066;-66
2023/09/14 01:41:22;;;;;;;1999.90;999.90;;;10.60;99.90;;;;;;5055850;28;20052;-66
2023/09/14 01:43:52;;;;;;;1999.90;999.90;;;10.60;99.90;;;;;;5054105;28;20075;-66
2023/09/14 01:46:18;;;;;;;1999.90;999.90;;;10.50;99.90;;;;;;5061985;28;20464;-66
2023/09/14 01:48:45;;;;;;;1999.90;999.90;;;10.40;99.90;;;;;;5065207;28;20115;-66
2023/09/14 01:51:11;;;;;;;1999.90;999.90;;;10.40;99.90;;;;;;5052706;28;20040;-67
2023/09/14 01:53:37;;;;;;;1999.90;999.90;;;10.30;99.90;;;;;;5052991;28;20465;-66
2023/09/14 01:56:03;;;;;;;1999.90;999.90;;;10.10;99.90;;;;;;5050366;28;20086;-66
2023/09/14 01:58:29;;;;;;;1999.90;999.90;;;10.10;99.90;;;;;;5049473;28;20072;-66
2023/09/14 02:00:56;;;;;;;1999.90;999.90;;;10.00;99.90;;;;;;5057059;28;20500;-66
2023/09/14 02:03:22;;;;;;;1999.90;999.90;;;9.90;99.90;;;;;;5049639;28;20056;-66
2023/09/14 02:05:57;;;;;;;1999.90;999.90;;;9.90;99.90;;;;;;5052887;28;20512;-67
2023/09/14 02:08:23;;;;;;;1999.90;999.90;;;9.90;99.90;;;;;;5054537;28;20049;-67
2023/09/14 02:10:49;;;;;;;1999.90;999.90;;;9.70;99.90;;;;;;5058027;28;20070;-66
2023/09/14 02:13:15;;;;;;;1999.90;999.90;;;9.70;99.90;;;;;;5053377;28;20103;-67
2023/09/14 02:15:40;;;;;;;1999.90;999.90;;;9.70;99.90;;;;;;5061434;28;20521;-67
2023/09/14 02:18:06;;;;;;;1999.90;999.90;;;9.60;99.90;;;;;;5059451;28;20048;-66
2023/09/14 02:20:31;;;;;;;1999.90;999.90;;;9.60;99.90;;;;;;5048114;28;20122;-66
2023/09/14 02:22:57;;;;;;;1999.90;999.90;;;9.60;99.90;;;;;;5042317;28;20132;-66
2023/09/14 02:25:23;;;;;;;1999.90;999.90;;;9.50;99.90;;;;;;5042864;28;20416;-66
2023/09/14 02:27:48;;;;;;;1999.90;999.90;;;9.50;99.90;;;;;;5050217;28;20048;-66
2023/09/14 02:30:14;;;;;;;1999.90;999.90;;;9.40;99.90;;;;;;5050451;28;20033;-66
2023/09/14 02:32:39;;;;;;;1999.90;999.90;;;9.40;99.90;;;;;;5047611;28;20501;-66
2023/09/14 02:35:05;;;;;;;1999.90;999.90;;;9.30;99.90;;;;;;5034434;28;20106;-66
2023/09/14 02:37:31;;;;;;;1999.90;999.90;;;9.30;99.90;;;;;;5053724;28;20535;-67
2023/09/14 02:39:57;;;;;;;1999.90;999.90;;;9.20;99.90;;;;;;5051989;28;20803;-67
2023/09/14 02:42:23;;;;;;;1999.90;999.90;;;9.10;99.90;;;;;;5054781;28;20041;-66
2023/09/14 02:44:48;;;;;;;1999.90;999.90;;;9.10;99.90;;;;;;5064578;28;20045;-66
2023/09/14 02:47:14;;;;;;;1999.90;999.90;;;9.00;99.90;;;;;;5054258;28;20486;-67
2023/09/14 02:49:39;;;;;;;1999.90;999.90;;;9.00;99.90;;;;;;5043616;28;20101;-66
2023/09/14 02:52:05;;;;;;;1999.90;999.90;;;8.90;99.90;;;;;;5062549;28;20091;-67
2023/09/14 02:54:31;;;;;;;1999.90;999.90;;;8.90;99.90;;;;;;5051185;28;20556;-67
2023/09/14 02:56:56;;;;;;;1999.90;999.90;;;8.90;99.90;;;;;;5058624;28;20122;-66
2023/09/14 02:59:22;;;;;;;1999.90;999.90;;;8.80;99.90;;;;;;5053136;28;20049;-66
2023/09/14 03:01:49;;;;;;;1999.90;999.90;;;8.80;99.90;;;;;;5050963;28;20094;-66
2023/09/14 03:04:15;;;;;;;1999.90;999.90;;;8.80;99.90;;;;;;5053223;28;20111;-66
2023/09/14 03:06:40;;;;;;;1999.90;999.90;;;8.70;99.90;;;;;;5052498;28;20453;-66
2023/09/14 03:09:06;;;;;;;1999.90;999.90;;;8.70;99.90;;;;;;5057768;28;20492;-67
2023/09/14 03:11:32;;;;;;;1999.90;999.90;;;8.70;99.90;;;;;;5056762;28;20049;-67
2023/09/14 03:13:58;;;;;;;1999.90;999.90;;;8.70;99.90;;;;;;5055926;28;20044;-67
2023/09/14 03:16:23;;;;;;;1999.90;999.90;;;8.70;99.90;;;;;;5049465;28;20045;-66
2023/09/14 03:18:49;;;;;;;1999.90;999.90;;;8.60;99.90;;;;;;5068821;28;20132;-66
2023/09/14 03:21:25;;;;;;;1999.90;999.90;;;8.60;99.90;;;;;;5062555;28;20488;-67
2023/09/14 03:23:51;;;;;;;1999.90;999.90;;;8.60;99.90;;;;;;5056924;28;20033;-66
2023/09/14 03:26:18;;;;;;;1999.90;999.90;;;8.50;99.90;;;;;;5033686;28;20516;-66
2023/09/14 03:28:45;;;;;;;1999.90;999.90;;;8.50;99.90;;;;;;5053822;28;20032;-67
2023/09/14 03:31:11;;;;;;;1999.90;999.90;;;8.40;99.90;;;;;;5044233;28;20128;-67
2023/09/14 03:33:37;;;;;;;1999.90;999.90;;;8.50;99.90;;;;;;5057799;28;20127;-66
2023/09/14 03:36:03;;;;;;;1999.90;999.90;;;8.40;99.90;;;;;;5054928;28;20039;-66
2023/09/14 03:38:29;;;;;;;1999.90;999.90;;;8.40;99.90;;;;;;5056407;28;20112;-66
2023/09/14 03:40:55;;;;;;;1999.90;999.90;;;8.30;99.90;;;;;;5059277;28;20166;-66
2023/09/14 03:43:20;;;;;;;1999.90;999.90;;;8.30;99.90;;;;;;5055766;28;20117;-66
2023/09/14 03:45:46;;;;;;;1999.90;999.90;;;8.20;99.90;;;;;;5057146;28;20048;-66
2023/09/14 03:48:12;;;;;;;1999.90;999.90;;;8.20;99.90;;;;;;5057628;28;20045;-67
2023/09/14 03:50:38;;;;;;;1999.90;999.90;;;8.20;99.90;;;;;;5057196;28;20140;-66
2023/09/14 03:53:04;;;;;;;1999.90;999.90;;;8.10;99.90;;;;;;5068095;28;20174;-66
2023/09/14 03:55:30;;;;;;;1999.90;999.90;;;8.10;99.90;;;;;;5068440;28;20051;-66
2023/09/14 03:57:57;;;;;;;1999.90;999.90;;;8.10;99.90;;;;;;5045187;28;20118;-66
2023/09/14 04:00:23;;;;;;;1999.90;999.90;;;8.10;99.90;;;;;;5051529;28;20045;-66
2023/09/14 04:02:49;;;;;;;1999.90;999.90;;;8.00;99.90;;;;;;5055860;28;20036;-66
2023/09/14 04:05:16;;;;;;;1999.90;999.90;;;8.00;99.90;;;;;;5037286;28;20060;-67
2023/09/14 04:07:44;;;;;;;1999.90;999.90;;;7.90;99.90;;;;;;5057158;28;20056;-66
2023/09/14 04:10:10;;;;;;;1999.90;999.90;;;7.90;99.90;;;;;;5053950;28;20794;-66
2023/09/14 04:12:42;;;;;;;1999.90;999.90;;;7.90;99.90;;;;;;5033882;28;20043;-66
2023/09/14 04:15:09;;;;;;;1999.90;999.90;;;7.90;99.90;;;;;;5058475;28;20397;-66
2023/09/14 04:17:35;;;;;;;1999.90;999.90;;;7.80;99.90;;;;;;5062827;28;20032;-66
2023/09/14 04:20:09;;;;;;;1999.90;999.90;;;7.80;99.90;;;;;;5044102;28;20423;-66
2023/09/14 04:22:35;;;;;;;1999.90;999.90;;;7.80;99.90;;;;;;5060651;28;20098;-66
2023/09/14 04:25:00;;;;;;;1999.90;999.90;;;7.80;99.90;;;;;;5034425;28;20040;-66
2023/09/14 04:27:26;;;;;;;1999.90;999.90;;;7.70;99.90;;;;;;5048881;28;20037;-66
2023/09/14 04:29:51;;;;;;;1999.90;999.90;;;7.70;99.90;;;;;;5050288;28;20072;-66
2023/09/14 04:32:17;;;;;;;1999.90;999.90;;;7.70;99.90;;;;;;5051764;28;20115;-66
2023/09/14 04:34:43;;;;;;;1999.90;999.90;;;7.60;99.90;;;;;;5055055;28;20064;-66
2023/09/14 04:37:08;;;;;;;1999.90;999.90;;;7.60;99.90;;;;;;5041031;28;20040;-66
2023/09/14 04:39:34;;;;;;;1999.90;999.90;;;7.60;99.90;;;;;;5052870;28;20203;-66
2023/09/14 04:42:00;;;;;;;1999.90;999.90;;;7.60;99.90;;;;;;5061188;28;20051;-66
2023/09/14 04:44:26;;;;;;;1999.90;999.90;;;7.60;99.90;;;;;;5049575;28;20041;-66
2023/09/14 04:46:51;;;;;;;1999.90;999.90;;;7.60;99.90;;;;;;5057816;28;20086;-66
2023/09/14 04:49:17;;;;;;;1999.90;999.90;;;7.60;99.90;;;;;;5061189;28;20041;-66
2023/09/14 04:51:42;;;;;;;1999.90;999.90;;;7.60;99.90;;;;;;5051640;28;20460;-66
2023/09/14 04:54:08;;;;;;;1999.90;999.90;;;7.50;99.90;;;;;;5063184;28;20037;-67
2023/09/14 04:56:34;;;;;;;1999.90;999.90;;;7.50;99.90;;;;;;5055054;28;20044;-66
2023/09/14 04:59:00;;;;;;;1999.90;999.90;;;7.50;99.90;;;;;;5044006;28;20086;-66
2023/09/14 05:01:25;;;;;;;1999.90;999.90;;;7.50;99.90;;;;;;5048924;28;20049;-66
2023/09/14 05:03:51;;;;;;;1999.90;999.90;;;7.40;99.90;;;;;;5050730;28;20094;-66
2023/09/14 05:06:17;;;;;;;1999.90;999.90;;;7.40;99.90;;;;;;5054929;28;20136;-66
2023/09/14 05:08:42;;;;;;;1999.90;999.90;;;7.40;99.90;;;;;;5040947;28;20058;-66
2023/09/14 05:11:08;;;;;;;1999.90;999.90;;;7.40;99.90;;;;;;5054078;28;20049;-66
2023/09/14 05:13:33;;;;;;;1999.90;999.90;;;7.40;99.90;;;;;;5059212;28;20055;-66
2023/09/14 05:15:59;;;;;;;1999.90;999.90;;;7.50;99.90;;;;;;5063137;28;20048;-66
2023/09/14 05:18:24;;;;;;;1999.90;999.90;;;7.40;99.90;;;;;;5056199;28;20037;-66
2023/09/14 05:20:51;;;;;;;1999.90;999.90;;;7.40;99.90;;;;;;5061908;28;20063;-66
2023/09/14 05:23:16;;;;;;;1999.90;999.90;;;7.50;99.90;;;;;;5058325;28;20052;-67
2023/09/14 05:25:43;;;;;;;1999.90;999.90;;;7.40;99.90;;;;;;5061937;28;20041;-63
2023/09/14 05:28:08;;;;;;;1999.90;999.90;;;7.40;99.90;;;;;;5042435;28;20033;-67
2023/09/14 05:30:35;;;;;;;1999.90;999.90;;;7.50;99.90;;;;;;5048587;28;20086;-67
2023/09/14 05:33:00;;;;;;;1999.90;999.90;;;7.50;99.90;;;;;;5047433;28;20045;-67
2023/09/14 05:35:26;;;;;;;1999.90;999.90;;;7.50;99.90;;;;;;5050687;28;20043;-66
2023/09/14 05:37:52;;;;;;;1999.90;999.90;;;7.60;99.90;;;;;;5052524;28;20127;-67
2023/09/14 05:40:18;;;;;;;1999.90;999.90;;;7.60;99.90;;;;;;5058535;28;20148;-67
2023/09/14 05:42:43;;;;;;;1999.90;999.90;;;7.60;99.90;;;;;;5052017;28;20040;-67
2023/09/14 05:45:11;;;;;;;1999.90;999.90;;;7.60;99.90;;;;;;5048055;28;20123;-67
2023/09/14 05:47:37;;;;;;;1999.90;999.90;;;7.70;99.90;;;;;;5056178;28;20033;-67
2023/09/14 05:50:05;;;;;;;1999.90;999.90;;;7.70;99.90;;;;;;5038721;28;20040;-67
2023/09/14 05:52:32;;;;;;;1999.90;999.90;;;7.80;99.90;;;;;;5041322;28;20043;-66
2023/09/14 05:54:58;;;;;;;1999.90;999.90;;;7.80;99.90;;;;;;5048388;28;20055;-67
2023/09/14 05:57:24;;;;;;;1999.90;999.90;;;7.90;99.90;;;;;;5055454;28;20049;-66
2023/09/14 05:59:50;;;;;;;1999.90;999.90;;;8.00;99.90;;;;;;5047597;28;20463;-67
2023/09/14 06:02:18;;;;;;;1999.90;999.90;;;8.00;99.90;;;;;;5051070;28;20131;-67
2023/09/14 06:04:44;;;;;;;1999.90;999.90;;;8.10;99.90;;;;;;5051049;28;20044;-67
2023/09/14 06:07:09;;;;;;;1999.90;999.90;;;8.20;99.90;;;;;;5062704;28;20070;-67
2023/09/14 06:09:35;;;;;;;1999.90;999.90;;;8.20;99.90;;;;;;5058310;28;20033;-67
2023/09/14 06:12:01;;;;;;;1999.90;999.90;;;8.30;99.90;;;;;;5044816;28;20044;-67
2023/09/14 06:14:27;;;;;;;1999.90;999.90;;;8.40;99.90;;;;;;5064306;28;20045;-67
2023/09/14 06:16:53;;;;;;;1999.90;999.90;;;8.50;99.90;;;;;;5043217;28;20121;-67
2023/09/14 06:19:19;;;;;;;1999.90;999.90;;;8.50;99.90;;;;;;5057381;28;20145;-67
2023/09/14 06:21:45;;;;;;;1999.90;999.90;;;8.60;99.90;;;;;;5052367;28;20112;-67
2023/09/14 06:24:10;;;;;;;1999.90;999.90;;;8.70;99.90;;;;;;5070727;28;20110;-67
2023/09/14 06:26:36;;;;;;;1999.90;999.90;;;8.80;99.90;;;;;;5053268;28;20032;-67
2023/09/14 06:29:02;;;;;;;1999.90;999.90;;;8.90;99.90;;;;;;5066822;28;20071;-67
2023/09/14 06:31:27;;;;;;;1999.90;999.90;;;9.00;99.90;;;;;;5054344;28;20053;-64
2023/09/14 06:33:53;;;;;;;1999.90;999.90;;;9.10;99.90;;;;;;5053774;28;20424;-66
2023/09/14 06:36:19;;;;;;;1999.90;999.90;;;9.10;99.90;;;;;;5046527;28;20458;-66
2023/09/14 06:38:45;;;;;;;1999.90;999.90;;;9.20;99.90;;;;;;5050942;28;20452;-66
2023/09/14 06:41:15;;;;;;;1999.90;999.90;;;9.30;99.90;;;;;;5039555;28;20057;-67
2023/09/14 06:43:42;;;;;;;1999.90;999.90;;;9.40;99.90;;;;;;5051915;28;20066;-66
2023/09/14 06:46:09;;;;;;;1999.90;999.90;;;9.50;99.90;;;;;;5065279;28;20049;-67
2023/09/14 06:48:35;;;;;;;1999.90;999.90;;;9.60;99.90;;;;;;5069309;28;20045;-67
2023/09/14 06:51:01;;;;;;;1999.90;999.90;;;9.70;99.90;;;;;;5055400;28;20295;-66
2023/09/14 06:53:27;;;;;;;1999.90;999.90;;;9.80;99.90;;;;;;5036994;28;20045;-67
2023/09/14 06:55:52;;;;;;;1999.90;999.90;;;10.00;99.90;;;;;;5051065;28;20055;-66
2023/09/14 06:58:18;;;;;;;1999.90;999.90;;;10.10;99.90;;;;;;5053696;28;20499;-67
2023/09/14 07:00:44;;;;;;;1999.90;999.90;;;10.20;99.90;;;;;;5052290;28;20041;-67
2023/09/14 07:03:10;;;;;;;1999.90;999.90;;;10.30;99.90;;;;;;5052220;28;20463;-66
2023/09/14 07:05:37;;;;;;;1999.90;999.90;;;10.40;99.90;;;;;;5055964;28;20048;-67
2023/09/14 07:08:03;;;;;;;1999.90;999.90;;;10.50;99.90;;;;;;5046528;28;20041;-66
2023/09/14 07:10:29;;;;;;;1999.90;999.90;;;10.50;99.90;;;;;;5059002;28;20045;-67
2023/09/14 07:12:55;;;;;;;1999.90;999.90;;;10.70;99.90;;;;;;5035170;28;20394;-67
2023/09/14 07:15:21;;;;;;;1999.90;999.90;;;10.80;99.90;;;;;;5051031;28;20185;-66
2023/09/14 07:17:47;;;;;;;1999.90;999.90;;;11.00;99.90;;;;;;5059442;28;20098;-66
2023/09/14 07:20:12;;;;;;;1999.90;999.90;;;11.20;99.90;;;;;;5050325;28;20037;-67
2023/09/14 07:22:38;;;;;;;1999.90;999.90;;;11.30;99.90;;;;;;5055464;28;20048;-66
2023/09/14 07:25:08;;;;;;;1999.90;999.90;;;11.50;99.90;;;;;;5064776;28;20040;-66
2023/09/14 07:27:34;;;;;;;1999.90;999.90;;;11.70;99.90;;;;;;5046040;28;20530;-66
2023/09/14 07:30:00;;;;;;;1999.90;999.90;;;11.90;99.90;;;;;;5035451;28;20076;-66
2023/09/14 07:32:26;;;;;;;1999.90;999.90;;;12.00;99.90;;;;;;5037295;28;20041;-67
2023/09/14 07:34:51;;;;;;;1999.90;999.90;;;12.20;99.90;;;;;;5051141;28;20095;-66
2023/09/14 07:37:17;;;;;;;1999.90;999.90;;;12.30;99.90;;;;;;5052432;28;20495;-67
2023/09/14 07:39:43;;;;;;;1999.90;999.90;;;12.50;99.90;;;;;;5034057;28;20155;-67
2023/09/14 07:42:09;;;;;;;1999.90;999.90;;;12.60;99.90;;;;;;5041556;28;20412;-67
2023/09/14 07:44:35;;;;;;;1999.90;999.90;;;12.80;99.90;;;;;;5053378;28;20041;-67
2023/09/14 07:47:00;;;;;;;1999.90;999.90;;;13.00;99.90;;;;;;5047175;28;20128;-67
2023/09/14 07:49:26;;;;;;;1999.90;999.90;;;13.10;99.90;;;;;;5040574;28;20039;-67
2023/09/14 07:51:51;;;;;;;1999.90;999.90;;;13.30;99.90;;;;;;5057529;28;20123;-67
2023/09/14 07:54:17;;;;;;;1999.90;999.90;;;13.50;99.90;;;;;;5050487;28;20056;-67
2023/09/14 07:56:43;;;;;;;1999.90;999.90;;;13.70;99.90;;;;;;5049629;28;20059;-67
2023/09/14 07:59:08;;;;;;;1999.90;999.90;;;13.90;99.90;;;;;;5051941;28;20045;-67
2023/09/14 08:01:35;;;;;;;1999.90;999.90;;;14.00;99.90;;;;;;5052508;28;20056;-67
2023/09/14 08:04:01;;;;;;;1999.90;999.90;;;14.20;99.90;;;;;;5052520;28;20540;-67
2023/09/14 08:06:28;;;;;;;1999.90;999.90;;;14.40;99.90;;;;;;5038668;28;20049;-67
2023/09/14 08:08:55;;;;;;;1999.90;999.90;;;14.50;99.90;;;;;;5049585;28;20112;-67
2023/09/14 08:11:21;;;;;;;1999.90;999.90;;;14.70;99.90;;;;;;5033741;28;20048;-66
2023/09/14 08:13:46;;;;;;;1999.90;999.90;;;14.90;99.90;;;;;;5051628;28;20042;-67
2023/09/14 08:16:12;;;;;;;1999.90;999.90;;;15.10;99.90;;;;;;5045858;28;20460;-67
2023/09/14 08:18:37;;;;;;;1999.90;999.90;;;15.20;99.90;;;;;;5046503;28;20051;-67
2023/09/14 08:21:03;;;;;;;1999.90;999.90;;;15.40;99.90;;;;;;5036212;28;20048;-67
2023/09/14 08:23:29;;;;;;;1999.90;999.90;;;15.60;99.90;;;;;;5060656;28;20599;-67
2023/09/14 08:25:54;;;;;;;1999.90;999.90;;;15.80;99.90;;;;;;5042587;28;20049;-67
2023/09/14 08:28:20;;;;;;;1999.90;999.90;;;15.90;99.90;;;;;;5045576;28;20033;-67
2023/09/14 08:30:47;;;;;;;1999.90;999.90;;;16.10;99.90;;;;;;5036588;28;20044;-67
2023/09/14 08:33:14;;;;;;;63.50;60.38;;;16.30;99.90;;;;;;5044494;28;20092;-67
2023/09/14 08:35:40;;;;;;;52.65;50.05;;;16.50;99.90;;;;;;5044632;28;20123;-67
2023/09/14 08:38:07;;;;;;;1999.90;999.90;;;16.90;99.90;;;;;;5046384;28;20110;-67
2023/09/14 08:40:34;;;;;;;60.58;57.65;;;17.50;99.90;;;;;;5047856;28;20065;-67
2023/09/14 08:43:00;;;;;;;113.35;108.22;;;18.10;99.90;;;;;;5060149;28;20048;-67
2023/09/14 08:45:29;;;;;;;167.73;160.55;;;18.60;99.90;;;;;;5045727;28;20413;-67
2023/09/14 08:47:56;;;;;;;172.90;165.57;;;19.20;99.90;;;;;;5051537;28;20398;-68
2023/09/14 08:50:29;;;;;;;144.10;137.65;;;19.40;99.90;;;;;;5055542;28;20500;-67
2023/09/14 08:52:55;;;;;;;246.80;236.38;;;19.60;99.90;;;;;;5051231;28;20041;-67
2023/09/14 08:55:23;;;;;;;265.63;254.10;;;19.70;99.90;;;;;;5028812;28;20048;-68
2023/09/14 08:57:51;;;;;;;252.07;241.20;;;20.00;99.90;;;;;;5044441;28;20045;-67
2023/09/14 09:00:18;;;;;;;328.63;313.73;;;19.70;99.90;;;;;;5045249;28;20120;-67
2023/09/14 09:02:46;;;;;;;166.65;159.52;;;19.40;99.90;;;;;;5058444;28;20481;-67
2023/09/14 09:05:13;;;;;;;261.50;249.48;;;19.20;99.90;;;;;;5046237;28;20040;-67
2023/09/14 09:07:40;;;;;;;247.27;236.68;;;19.30;99.90;;;;;;5046310;28;20095;-67
2023/09/14 09:10:10;;;;;;;385.00;366.35;;;19.70;99.90;;;;;;5052961;28;20048;-67
2023/09/14 09:12:36;;;;;;;339.90;324.05;;;20.10;99.90;;;;;;5033320;28;20034;-67
2023/09/14 09:15:02;;;;;;;148.43;141.75;;;20.50;99.90;;;;;;5045660;28;20385;-67
2023/09/14 09:17:38;;;;;;;147.30;141.02;;;20.70;99.90;;;;;;5044281;28;20041;-67
2023/09/14 09:20:11;;;;;;;132.70;126.85;;;20.90;99.90;;;;;;5042080;28;20037;-68
2023/09/14 09:22:40;;;;;;;56.20;53.47;;;21.20;99.90;;;;;;5049556;28;20572;-67
2023/09/14 09:25:06;;;;;;;112.90;107.97;;;21.30;99.90;;;;;;5034608;28;20079;-67
2023/09/14 09:27:32;;;;;;;85.43;81.55;;;21.30;99.90;;;;;;5042758;28;20493;-67
2023/09/14 09:30:01;;;;;;;154.07;147.30;;;21.30;99.90;;;;;;5043102;28;20044;-67
2023/09/14 09:32:26;;;;;;;37.08;35.22;;;21.30;99.90;;;;;;5046273;28;20043;-67
2023/09/14 09:34:52;;;;;;;123.43;118.13;;;21.40;99.90;;;;;;5045936;28;20041;-67
2023/09/14 09:37:18;;;;;;;40.33;38.08;;;21.40;99.90;;;;;;5045001;28;20041;-67
2023/09/14 09:39:44;;;;;;;70.03;66.43;;;21.50;99.90;;;;;;5048374;28;20068;-67
2023/09/14 09:42:13;;;;;;;57.70;55.00;;;21.60;99.90;;;;;;5043128;28;20041;-67
2023/09/14 09:44:39;;;;;;;34.65;32.78;;;21.60;99.90;;;;;;5050976;28;20082;-67
2023/09/14 09:47:09;;;;;;;34.03;32.10;;;21.70;99.90;;;;;;5047221;28;20044;-67
2023/09/14 09:49:34;;;;;;;28.05;26.40;;;21.80;99.90;;;;;;5051501;28;20333;-67
2023/09/14 09:52:00;;;;;;;78.45;74.80;;;21.80;99.90;;;;;;5046591;28;20091;-67
2023/09/14 09:54:27;;;;;;;34.40;32.60;;;21.90;99.90;;;;;;5045475;28;20098;-67
2023/09/14 09:56:53;;;;;;;29.00;27.30;;;21.90;99.90;;;;;;5045703;28;20453;-67
2023/09/14 09:59:19;;;;;;;30.70;28.88;;;21.70;99.90;;;;;;5041356;28;20103;-67
2023/09/14 10:01:46;;;;;;;43.25;41.05;;;21.60;99.90;;;;;;5048373;28;20056;-67
2023/09/14 10:04:19;;;;;;;87.10;83.30;;;21.50;99.90;;;;;;5044396;28;20037;-67
2023/09/14 10:06:52;;;;;;;70.85;67.68;;;21.60;99.90;;;;;;5030616;28;20477;-67
2023/09/14 10:09:18;;;;;;;46.55;44.13;;;21.80;99.90;;;;;;5029736;28;20060;-67
2023/09/14 10:11:46;;;;;;;42.92;40.72;;;22.00;99.90;;;;;;5043186;28;20045;-68
2023/09/14 10:14:13;;;;;;;30.17;28.55;;;22.10;99.90;;;;;;5051333;28;20490;-67
2023/09/14 10:16:41;;;;;;;29.48;27.98;;;22.20;99.90;;;;;;5052417;28;20067;-67
2023/09/14 10:19:07;;;;;;;30.95;29.25;;;22.20;99.90;;;;;;5049245;28;20049;-67
2023/09/14 10:21:34;;;;;;;28.48;26.70;;;22.10;99.90;;;;;;5050105;28;20041;-67
2023/09/14 10:24:03;;;;;;;26.27;24.60;;;22.10;99.90;;;;;;5042069;28;20946;-67
2023/09/14 10:26:29;;;;;;;26.08;24.60;;;22.10;99.90;;;;;;5046476;28;20049;-68
2023/09/14 10:28:56;;;;;;;31.42;29.48;;;22.30;99.90;;;;;;5046253;28;20041;-67
2023/09/14 10:31:24;;;;;;;53.67;51.15;;;22.20;99.90;;;;;;5027904;28;20424;-67
2023/09/14 10:33:51;;;;;;;62.15;59.15;;;22.10;99.90;;;;;;5044050;28;20048;-67
2023/09/14 10:36:18;;;;;;;28.58;26.90;;;22.10;99.90;;;;;;5039105;28;20050;-67
2023/09/14 10:38:45;;;;;;;36.05;34.15;;;22.10;99.90;;;;;;5044201;28;20052;-67
2023/09/14 10:41:14;;;;;;;27.38;25.75;;;21.90;99.90;;;;;;5036190;28;20511;-67
2023/09/14 10:43:41;;;;;;;45.30;43.00;;;21.50;99.90;;;;;;5043508;28;20422;-67
2023/09/14 10:46:16;;;;;;;28.83;26.75;;;21.10;99.90;;;;;;5045387;28;20036;-67
2023/09/14 10:48:43;;;;;;;32.10;30.20;;;20.90;99.90;;;;;;5043939;28;20072;-67
2023/09/14 10:51:11;;;;;;;42.85;40.67;;;20.70;99.90;;;;;;5045185;28;20549;-67
2023/09/14 10:53:40;;;;;;;76.25;72.45;;;20.40;99.90;;;;;;5049947;28;20127;-67
2023/09/14 10:56:18;;;;;;;41.80;39.47;;;20.50;99.90;;;;;;5023595;28;20140;-67
2023/09/14 10:58:43;;;;;;;54.60;52.00;;;20.90;99.90;;;;;;5056231;28;20610;-67
2023/09/14 11:01:11;;;;;;;33.55;31.75;;;21.30;99.90;;;;;;5030686;28;20076;-67
2023/09/14 11:04:13;;;;;;;41.58;39.33;;;21.50;99.90;;;;;;5049041;28;20041;-67
2023/09/14 11:06:46;;;;;;;26.65;25.15;;;21.80;99.90;;;;;;5054580;28;20182;-67
2023/09/14 11:09:14;;;;;;;27.85;26.23;;;22.00;99.10;;;;;;5054321;28;20094;-67
2023/09/14 11:11:52;;;;;;;25.67;24.00;;;22.10;99.90;;;;;;5059975;28;20189;-67
2023/09/14 11:14:20;;;;;;;23.15;21.75;;;22.40;99.90;;;;;;5047705;28;20059;-67
2023/09/14 11:16:57;;;;;;;25.27;23.60;;;22.50;99.90;;;;;;5052378;28;20116;-67
2023/09/14 11:19:29;;;;;;;20.77;19.48;;;22.40;99.90;;;;;;5049642;28;20053;-67
2023/09/14 11:21:54;;;;;;;22.42;20.92;;;21.90;99.90;;;;;;5053103;28;20493;-67
2023/09/14 11:24:33;;;;;;;24.65;23.15;;;21.50;99.90;;;;;;5054205;28;20477;-67
2023/09/14 11:26:58;;;;;;;22.15;20.67;;;21.30;99.90;;;;;;5059952;28;20052;-67
2023/09/14 11:29:26;;;;;;;27.70;26.00;;;21.30;99.90;;;;;;5063168;28;20041;-67
2023/09/14 11:32:08;;;;;;;26.98;25.48;;;21.40;99.90;;;;;;5060143;28;20080;-67
2023/09/14 11:34:36;;;;;;;23.55;22.00;;;21.70;99.90;;;;;;5046088;28;20053;-68
2023/09/14 11:37:05;;;;;;;23.40;21.83;;;21.90;99.90;;;;;;5053059;28;20073;-67
2023/09/14 11:39:32;;;;;;;22.65;21.33;;;22.10;99.90;;;;;;5051446;28;20040;-67
2023/09/14 11:42:00;;;;;;;20.38;18.98;;;22.10;99.90;;;;;;5065061;28;20059;-67
2023/09/14 11:44:31;;;;;;;20.08;18.48;;;22.10;99.90;;;;;;5048610;28;20048;-67
2023/09/14 11:47:01;;;;;;;22.05;20.65;;;22.20;99.90;;;;;;5063600;28;20041;-67
2023/09/14 11:49:29;;;;;;;20.52;19.02;;;22.40;99.90;;;;;;5047833;28;20042;-67
2023/09/14 11:51:56;;;;;;;19.35;18.05;;;22.60;99.90;;;;;;5049605;28;20531;-67
2023/09/14 11:54:22;;;;;;;19.67;18.27;;;22.90;99.90;;;;;;5049307;28;20094;-67
2023/09/14 11:56:49;;;;;;;19.27;17.98;;;23.00;99.90;;;;;;5036614;28;20047;-67
2023/09/14 11:59:34;;;;;;;19.95;18.65;;;22.90;99.90;;;;;;5030998;28;20049;-67
2023/09/14 12:02:03;;;;;;;21.70;20.40;;;22.90;99.60;;;;;;5049543;28;20111;-67
2023/09/14 12:04:29;;;;;;;21.27;19.90;;;23.00;99.90;;;;;;5052987;28;20044;-67
2023/09/14 12:06:56;;;;;;;19.20;17.77;;;23.20;99.90;;;;;;5065532;28;20390;-67